createdAt,value
2018-01-01T00:00:28.765Z,991.67
2018-01-01T00:01:28.782Z,991.65
2018-01-01T00:03:21.698Z,991.60
2018-01-01T00:04:21.702Z,991.59
2018-01-01T00:06:14.605Z,991.57
2018-01-01T00:07:14.617Z,991.52
2018-01-01T00:09:07.542Z,991.40
2018-01-01T00:10:07.558Z,991.43
2018-01-01T00:12:00.449Z,991.49
2018-01-01T00:13:00.477Z,991.48
2018-01-01T00:14:53.392Z,991.53
2018-01-01T00:15:53.401Z,991.52
2018-01-01T00:17:46.291Z,991.57
2018-01-01T00:18:46.308Z,991.54
2018-01-01T00:20:39.265Z,991.45
2018-01-01T00:21:39.260Z,991.46
2018-01-01T00:23:32.164Z,991.51
2018-01-01T00:24:32.181Z,991.53
2018-01-01T00:26:25.117Z,991.57
2018-01-01T00:27:25.105Z,991.62
2018-01-01T00:29:18.009Z,991.59
2018-01-01T00:30:18.028Z,991.62
2018-01-01T00:32:10.944Z,991.60
2018-01-01T00:33:10.947Z,991.66
2018-01-01T00:35:03.881Z,991.63
2018-01-01T00:36:03.874Z,991.61
2018-01-01T00:37:56.815Z,991.63
2018-01-01T00:38:56.793Z,991.51
2018-01-01T00:40:49.743Z,991.42
2018-01-01T00:41:49.719Z,991.36
2018-01-01T00:43:42.649Z,991.44
2018-01-01T00:44:42.642Z,991.39
2018-01-01T00:46:35.541Z,991.34
2018-01-01T00:47:35.557Z,991.38
2018-01-01T00:49:28.476Z,991.37
2018-01-01T00:50:28.481Z,991.36
2018-01-01T00:52:21.397Z,991.35
2018-01-01T00:53:21.416Z,991.47
2018-01-01T00:55:14.332Z,991.48
2018-01-01T00:56:14.337Z,991.60
2018-01-01T00:58:07.250Z,991.53
2018-01-01T00:59:07.263Z,991.61
2018-01-01T01:01:00.193Z,991.66
2018-01-01T01:02:00.189Z,991.69
2018-01-01T01:03:53.102Z,991.73
2018-01-01T01:04:53.131Z,991.75
2018-01-01T01:06:46.060Z,991.64
2018-01-01T01:07:46.041Z,991.69
2018-01-01T01:09:38.946Z,991.75
2018-01-01T01:10:38.962Z,991.72
2018-01-01T01:12:31.942Z,991.67
2018-01-01T01:13:31.913Z,991.74
2018-01-01T01:15:24.851Z,991.70
2018-01-01T01:16:24.863Z,991.74
2018-01-01T01:18:17.789Z,991.74
2018-01-01T01:19:17.789Z,991.73
2018-01-01T01:21:10.692Z,991.78
2018-01-01T01:22:10.711Z,991.75
2018-01-01T01:24:03.626Z,991.69
2018-01-01T01:25:03.632Z,991.70
2018-01-01T01:26:56.542Z,991.76
2018-01-01T01:27:56.554Z,991.77
2018-01-01T01:29:49.473Z,991.77
2018-01-01T01:30:49.477Z,991.81
2018-01-01T01:32:42.396Z,991.86
2018-01-01T01:33:42.406Z,991.85
2018-01-01T01:35:35.307Z,991.94
2018-01-01T01:36:35.318Z,991.88
2018-01-01T01:38:28.243Z,991.95
2018-01-01T01:39:28.242Z,991.96
2018-01-01T01:41:21.177Z,991.98
2018-01-01T01:42:21.209Z,992.10
2018-01-01T01:44:14.073Z,992.08
2018-01-01T01:45:14.090Z,992.10
2018-01-01T01:47:07.010Z,992.06
2018-01-01T01:48:07.023Z,992.11
2018-01-01T01:49:59.919Z,992.16
2018-01-01T01:50:59.923Z,992.18
2018-01-01T01:52:52.838Z,992.27
2018-01-01T01:53:52.844Z,992.24
2018-01-01T01:55:45.756Z,992.37
2018-01-01T01:56:45.761Z,992.39
2018-01-01T01:58:38.696Z,992.41
2018-01-01T01:59:38.701Z,992.41
2018-01-01T02:01:31.644Z,992.43
2018-01-01T02:02:31.648Z,992.54
2018-01-01T02:04:24.543Z,992.49
2018-01-01T02:05:24.562Z,992.41
2018-01-01T02:07:17.488Z,992.41
2018-01-01T02:08:17.480Z,992.47
2018-01-01T02:10:10.380Z,992.45
2018-01-01T02:11:10.401Z,992.46
2018-01-01T02:13:03.304Z,992.47
2018-01-01T02:14:03.315Z,992.48
2018-01-01T02:15:56.229Z,992.39
2018-01-01T02:16:56.230Z,992.40
2018-01-01T02:18:49.150Z,992.33
2018-01-01T02:19:49.149Z,992.38
2018-01-01T02:21:42.044Z,992.42
2018-01-01T02:22:42.066Z,992.39
2018-01-01T02:24:35.014Z,992.41
2018-01-01T02:25:35.030Z,992.31
2018-01-01T02:27:27.903Z,992.29
2018-01-01T02:28:27.919Z,992.27
2018-01-01T02:30:20.833Z,992.30
2018-01-01T02:31:20.839Z,992.27
2018-01-01T02:33:13.755Z,992.27
2018-01-01T02:34:13.760Z,992.20
2018-01-01T02:36:06.671Z,992.17
2018-01-01T02:37:06.686Z,992.15
2018-01-01T02:38:59.619Z,992.24
2018-01-01T02:39:59.612Z,992.26
2018-01-01T02:41:52.507Z,992.32
2018-01-01T02:42:52.529Z,992.18
2018-01-01T02:44:45.447Z,992.16
2018-01-01T02:45:45.457Z,992.18
2018-01-01T02:47:38.362Z,992.14
2018-01-01T02:48:38.373Z,992.09
2018-01-01T02:50:31.291Z,992.07
2018-01-01T02:51:31.293Z,992.01
2018-01-01T02:53:24.196Z,992.15
2018-01-01T02:54:24.213Z,992.09
2018-01-01T02:56:17.132Z,992.05
2018-01-01T02:57:17.144Z,992.03
2018-01-01T02:59:10.051Z,992.05
2018-01-01T03:00:10.058Z,992.06
2018-01-01T03:02:02.968Z,992.12
2018-01-01T03:03:02.975Z,992.14
2018-01-01T03:04:55.908Z,992.13
2018-01-01T03:05:55.922Z,992.08
2018-01-01T03:07:48.870Z,992.05
2018-01-01T03:08:48.869Z,992.01
2018-01-01T03:10:41.780Z,992.08
2018-01-01T03:11:41.798Z,992.10
2018-01-01T03:13:34.710Z,992.15
2018-01-01T03:14:34.720Z,992.16
2018-01-01T03:16:27.671Z,992.24
2018-01-01T03:17:27.640Z,992.17
2018-01-01T03:19:20.723Z,992.11
2018-01-01T03:20:20.559Z,992.19
2018-01-01T03:22:13.475Z,992.08
2018-01-01T03:23:13.483Z,992.15
2018-01-01T03:25:06.389Z,992.17
2018-01-01T03:26:06.414Z,992.16
2018-01-01T03:27:59.324Z,992.21
2018-01-01T03:28:59.329Z,992.17
2018-01-01T03:30:52.234Z,992.11
2018-01-01T03:31:52.249Z,992.19
2018-01-01T03:33:45.187Z,992.21
2018-01-01T03:34:45.173Z,992.02
2018-01-01T03:36:38.079Z,992.07
2018-01-01T03:37:38.092Z,992.07
2018-01-01T03:39:31.027Z,992.04
2018-01-01T03:40:31.017Z,992.08
2018-01-01T03:42:23.918Z,992.03
2018-01-01T03:43:23.933Z,992.03
2018-01-01T03:45:16.854Z,992.02
2018-01-01T03:46:16.856Z,991.98
2018-01-01T03:48:09.761Z,991.96
2018-01-01T03:49:09.778Z,991.94
2018-01-01T03:51:02.689Z,991.93
2018-01-01T03:52:02.696Z,991.89
2018-01-01T03:53:55.609Z,991.82
2018-01-01T03:54:55.616Z,991.80
2018-01-01T03:56:48.519Z,991.85
2018-01-01T03:57:48.529Z,991.85
2018-01-01T03:59:41.446Z,991.79
2018-01-01T04:00:41.456Z,991.75
2018-01-01T04:02:34.360Z,991.78
2018-01-01T04:03:34.396Z,991.73
2018-01-01T04:05:27.282Z,991.78
2018-01-01T04:06:27.307Z,991.71
2018-01-01T04:08:20.189Z,991.72
2018-01-01T04:09:20.208Z,991.68
2018-01-01T04:11:13.125Z,991.70
2018-01-01T04:12:13.134Z,991.73
2018-01-01T04:14:06.080Z,991.78
2018-01-01T04:15:06.049Z,991.78
2018-01-01T04:16:58.962Z,991.88
2018-01-01T04:17:58.986Z,991.89
2018-01-01T04:19:51.919Z,991.85
2018-01-01T04:20:51.905Z,991.90
2018-01-01T04:22:44.819Z,992.00
2018-01-01T04:23:44.832Z,991.94
2018-01-01T04:25:37.747Z,991.87
2018-01-01T04:26:37.752Z,991.88
2018-01-01T04:28:30.668Z,991.90
2018-01-01T04:29:30.676Z,991.84
2018-01-01T04:31:23.596Z,991.82
2018-01-01T04:32:23.598Z,991.78
2018-01-01T04:34:16.518Z,991.88
2018-01-01T04:35:16.522Z,991.76
2018-01-01T04:37:09.424Z,991.76
2018-01-01T04:38:09.439Z,991.74
2018-01-01T04:40:02.354Z,991.70
2018-01-01T04:41:02.360Z,991.72
2018-01-01T04:42:55.280Z,991.66
2018-01-01T04:43:55.283Z,991.77
2018-01-01T04:45:48.218Z,991.74
2018-01-01T04:46:48.209Z,991.76
2018-01-01T04:48:41.594Z,991.72
2018-01-01T04:49:41.616Z,991.67
2018-01-01T04:51:34.565Z,991.68
2018-01-01T04:52:34.541Z,991.59
2018-01-01T04:54:27.441Z,991.67
2018-01-01T04:55:27.457Z,991.69
2018-01-01T04:57:20.402Z,991.58
2018-01-01T04:58:20.391Z,991.53
2018-01-01T05:00:13.296Z,991.52
2018-01-01T05:01:13.310Z,991.57
2018-01-01T05:03:06.245Z,991.48
2018-01-01T05:04:06.247Z,991.50
2018-01-01T05:05:59.140Z,991.58
2018-01-01T05:06:59.163Z,991.59
2018-01-01T05:08:52.085Z,991.65
2018-01-01T05:09:52.076Z,991.66
2018-01-01T05:11:44.973Z,991.65
2018-01-01T05:12:44.990Z,991.69
2018-01-01T05:14:37.904Z,991.63
2018-01-01T05:15:37.913Z,991.66
2018-01-01T05:17:30.820Z,991.62
2018-01-01T05:18:30.833Z,991.63
2018-01-01T05:20:23.755Z,991.68
2018-01-01T05:21:23.748Z,991.65
2018-01-01T05:23:16.654Z,991.65
2018-01-01T05:24:16.685Z,991.66
2018-01-01T05:26:09.603Z,991.65
2018-01-01T05:27:09.622Z,991.74
2018-01-01T05:29:02.520Z,991.66
2018-01-01T05:30:02.527Z,991.74
2018-01-01T05:31:55.449Z,991.69
2018-01-01T05:32:55.442Z,991.65
2018-01-01T05:34:48.364Z,991.66
2018-01-01T05:35:48.383Z,991.64
2018-01-01T05:37:41.314Z,991.60
2018-01-01T05:38:41.306Z,991.66
2018-01-01T05:40:34.211Z,991.64
2018-01-01T05:41:34.227Z,991.58
2018-01-01T05:43:27.162Z,991.69
2018-01-01T05:44:27.150Z,991.55
2018-01-01T05:46:20.058Z,991.54
2018-01-01T05:47:20.076Z,991.58
2018-01-01T05:49:12.989Z,991.62
2018-01-01T05:50:12.989Z,991.59
2018-01-01T05:52:05.901Z,991.58
2018-01-01T05:53:05.914Z,991.55
2018-01-01T05:54:58.841Z,991.54
2018-01-01T05:55:58.844Z,991.60
2018-01-01T05:57:51.757Z,991.56
2018-01-01T05:58:51.762Z,991.55
2018-01-01T06:00:44.702Z,991.64
2018-01-01T06:01:44.693Z,991.56
2018-01-01T06:03:37.599Z,991.64
2018-01-01T06:04:37.615Z,991.53
2018-01-01T06:06:30.534Z,991.58
2018-01-01T06:07:30.536Z,991.64
2018-01-01T06:09:23.445Z,991.59
2018-01-01T06:10:23.451Z,991.59
2018-01-01T06:12:16.369Z,991.67
2018-01-01T06:13:16.372Z,991.83
2018-01-01T06:15:09.272Z,991.81
2018-01-01T06:16:09.294Z,991.88
2018-01-01T06:18:02.234Z,991.89
2018-01-01T06:19:02.215Z,991.94
2018-01-01T06:20:55.113Z,991.93
2018-01-01T06:21:55.131Z,991.99
2018-01-01T06:23:48.063Z,991.99
2018-01-01T06:24:48.054Z,992.12
2018-01-01T06:26:40.958Z,992.05
2018-01-01T06:27:40.973Z,992.11
2018-01-01T06:29:33.889Z,992.08
2018-01-01T06:30:33.889Z,992.16
2018-01-01T06:32:26.792Z,992.13
2018-01-01T06:33:26.800Z,992.06
2018-01-01T06:35:19.734Z,992.01
2018-01-01T06:36:19.719Z,991.96
2018-01-01T06:38:12.626Z,992.03
2018-01-01T06:39:12.645Z,992.09
2018-01-01T06:41:05.556Z,992.04
2018-01-01T06:42:05.564Z,992.20
2018-01-01T06:43:58.464Z,992.21
2018-01-01T06:44:58.479Z,992.17
2018-01-01T06:46:51.394Z,992.24
2018-01-01T06:47:51.394Z,992.27
2018-01-01T06:49:44.301Z,992.29
2018-01-01T06:50:44.310Z,992.36
2018-01-01T06:52:37.221Z,992.38
2018-01-01T06:53:37.225Z,992.50
2018-01-01T06:55:30.127Z,992.33
2018-01-01T06:56:30.145Z,992.42
2018-01-01T06:58:23.083Z,992.48
2018-01-01T06:59:23.065Z,992.61
2018-01-01T07:01:16.003Z,992.80
2018-01-01T07:02:15.986Z,992.70
2018-01-01T07:04:08.894Z,992.61
2018-01-01T07:05:08.903Z,992.74
2018-01-01T07:07:01.819Z,992.78
2018-01-01T07:08:01.823Z,992.91
2018-01-01T07:09:54.746Z,993.01
2018-01-01T07:10:54.761Z,993.07
2018-01-01T07:12:47.673Z,993.35
2018-01-01T07:13:47.681Z,993.27
2018-01-01T07:15:40.579Z,993.15
2018-01-01T07:16:40.584Z,993.01
2018-01-01T07:18:33.499Z,993.36
2018-01-01T07:19:33.503Z,993.33
2018-01-01T07:21:26.420Z,993.45
2018-01-01T07:22:26.429Z,993.55
2018-01-01T07:24:19.326Z,993.66
2018-01-01T07:25:19.341Z,993.52
2018-01-01T07:27:12.273Z,993.62
2018-01-01T07:28:12.261Z,993.60
2018-01-01T07:30:05.176Z,993.87
2018-01-01T07:31:05.205Z,994.02
2018-01-01T07:32:58.104Z,993.66
2018-01-01T07:33:58.116Z,993.64
2018-01-01T07:35:51.012Z,993.65
2018-01-01T07:36:51.024Z,993.68
2018-01-01T07:38:43.979Z,993.79
2018-01-01T07:39:43.972Z,993.68
2018-01-01T07:41:36.888Z,993.86
2018-01-01T07:42:36.902Z,993.73
2018-01-01T07:44:29.863Z,994.07
2018-01-01T07:45:29.836Z,993.95
2018-01-01T07:47:22.757Z,994.04
2018-01-01T07:48:22.750Z,993.97
2018-01-01T07:50:15.698Z,994.13
2018-01-01T07:51:15.683Z,994.03
2018-01-01T07:53:08.592Z,994.10
2018-01-01T07:54:08.605Z,994.09
2018-01-01T07:56:01.523Z,994.39
2018-01-01T07:57:01.528Z,994.06
2018-01-01T07:58:54.432Z,994.18
2018-01-01T07:59:54.456Z,994.26
2018-01-01T08:01:47.365Z,994.27
2018-01-01T08:02:47.366Z,994.14
2018-01-01T08:04:40.289Z,994.19
2018-01-01T08:05:40.283Z,994.24
2018-01-01T08:07:33.202Z,994.36
2018-01-01T08:08:33.207Z,994.32
2018-01-01T08:10:26.137Z,994.36
2018-01-01T08:11:26.119Z,994.58
2018-01-01T08:13:19.015Z,994.45
2018-01-01T08:14:19.030Z,994.35
2018-01-01T08:16:11.952Z,994.42
2018-01-01T08:17:11.951Z,994.57
2018-01-01T08:19:04.918Z,994.48
2018-01-01T08:20:04.863Z,994.61
2018-01-01T08:21:57.783Z,994.63
2018-01-01T08:22:57.778Z,994.48
2018-01-01T08:24:50.693Z,994.53
2018-01-01T08:25:50.701Z,994.62
2018-01-01T08:27:43.628Z,994.71
2018-01-01T08:28:43.639Z,994.68
2018-01-01T08:30:36.522Z,994.74
2018-01-01T08:31:36.535Z,994.75
2018-01-01T08:33:29.444Z,994.87
2018-01-01T08:34:29.452Z,994.85
2018-01-01T08:36:22.366Z,994.88
2018-01-01T08:37:22.365Z,994.96
2018-01-01T08:39:15.269Z,994.96
2018-01-01T08:40:15.284Z,995.07
2018-01-01T08:42:08.228Z,995.08
2018-01-01T08:43:08.217Z,995.06
2018-01-01T08:45:01.123Z,995.00
2018-01-01T08:46:01.132Z,995.06
2018-01-01T08:47:54.052Z,995.18
2018-01-01T08:48:54.057Z,995.09
2018-01-01T08:50:46.959Z,995.14
2018-01-01T08:51:46.977Z,995.10
2018-01-01T08:53:39.893Z,995.26
2018-01-01T08:54:39.889Z,995.31
2018-01-01T08:56:32.793Z,995.30
2018-01-01T08:57:32.805Z,995.30
2018-01-01T08:59:25.768Z,995.35
2018-01-01T09:00:25.755Z,995.41
2018-01-01T09:02:18.700Z,995.36
2018-01-01T09:03:18.666Z,995.41
2018-01-01T09:05:11.604Z,995.45
2018-01-01T09:06:11.587Z,995.50
2018-01-01T09:08:04.512Z,995.53
2018-01-01T09:09:04.497Z,995.55
2018-01-01T09:10:57.406Z,995.49
2018-01-01T09:11:57.420Z,995.60
2018-01-01T09:13:50.368Z,995.57
2018-01-01T09:14:50.343Z,995.60
2018-01-01T09:16:43.251Z,995.63
2018-01-01T09:17:43.259Z,995.76
2018-01-01T09:19:36.175Z,995.77
2018-01-01T09:20:36.175Z,995.69
2018-01-01T09:22:29.091Z,995.82
2018-01-01T09:23:29.113Z,995.81
2018-01-01T09:25:22.041Z,995.72
2018-01-01T09:26:22.024Z,995.86
2018-01-01T09:28:14.931Z,995.82
2018-01-01T09:29:14.944Z,995.82
2018-01-01T09:31:07.866Z,995.87
2018-01-01T09:32:07.870Z,995.99
2018-01-01T09:34:00.777Z,995.82
2018-01-01T09:35:00.809Z,995.81
2018-01-01T09:36:53.711Z,995.91
2018-01-01T09:37:53.701Z,995.92
2018-01-01T09:39:46.606Z,996.11
2018-01-01T09:40:46.642Z,995.96
2018-01-01T09:42:39.530Z,996.16
2018-01-01T09:43:39.558Z,996.05
2018-01-01T09:45:32.428Z,996.16
2018-01-01T09:46:32.453Z,996.12
2018-01-01T09:48:25.379Z,996.08
2018-01-01T09:49:25.382Z,996.16
2018-01-01T09:51:18.281Z,996.29
2018-01-01T09:52:18.293Z,996.26
2018-01-01T09:54:11.216Z,996.24
2018-01-01T09:55:11.213Z,996.33
2018-01-01T09:57:04.136Z,996.34
2018-01-01T09:58:04.156Z,996.37
2018-01-01T09:59:57.099Z,996.42
2018-01-01T10:00:57.102Z,996.41
2018-01-01T10:02:50.020Z,996.41
2018-01-01T10:03:50.033Z,996.57
2018-01-01T10:05:42.971Z,996.45
2018-01-01T10:06:42.965Z,996.39
2018-01-01T10:08:35.873Z,996.39
2018-01-01T10:09:35.887Z,996.39
2018-01-01T10:11:28.818Z,996.42
2018-01-01T10:12:28.855Z,996.40
2018-01-01T10:14:21.710Z,996.46
2018-01-01T10:15:21.729Z,996.49
2018-01-01T10:17:14.638Z,996.47
2018-01-01T10:18:14.645Z,996.51
2018-01-01T10:20:07.557Z,996.50
2018-01-01T10:21:07.563Z,996.54
2018-01-01T10:23:00.475Z,996.51
2018-01-01T10:24:00.484Z,996.54
2018-01-01T10:25:53.397Z,996.54
2018-01-01T10:26:53.400Z,996.50
2018-01-01T10:28:46.317Z,996.55
2018-01-01T10:29:46.331Z,996.60
2018-01-01T10:31:39.252Z,996.47
2018-01-01T10:32:39.250Z,996.50
2018-01-01T10:34:32.149Z,996.66
2018-01-01T10:35:32.165Z,996.53
2018-01-01T10:37:25.087Z,996.59
2018-01-01T10:38:25.094Z,996.73
2018-01-01T10:40:18.000Z,996.65
2018-01-01T10:41:18.009Z,996.53
2018-01-01T10:43:10.910Z,996.59
2018-01-01T10:44:10.918Z,996.51
2018-01-01T10:46:03.815Z,996.42
2018-01-01T10:47:03.830Z,996.43
2018-01-01T10:48:56.740Z,996.40
2018-01-01T10:49:56.746Z,996.61
2018-01-01T10:51:49.648Z,996.50
2018-01-01T10:52:49.665Z,996.36
2018-01-01T10:54:42.582Z,996.46
2018-01-01T10:55:42.589Z,996.38
2018-01-01T10:57:35.496Z,996.35
2018-01-01T10:58:35.516Z,996.33
2018-01-01T11:00:28.427Z,996.35
2018-01-01T11:01:28.429Z,996.46
2018-01-01T11:03:21.359Z,996.38
2018-01-01T11:04:21.348Z,996.40
2018-01-01T11:06:14.297Z,996.55
2018-01-01T11:07:14.260Z,996.38
2018-01-01T11:09:07.179Z,996.46
2018-01-01T11:10:07.182Z,996.40
2018-01-01T11:12:01.149Z,996.32
2018-01-01T11:13:00.195Z,996.58
2018-01-01T11:14:53.080Z,996.39
2018-01-01T11:15:53.138Z,996.30
2018-01-01T11:17:46.010Z,996.40
2018-01-01T11:18:45.988Z,996.37
2018-01-01T11:20:38.887Z,996.42
2018-01-01T11:21:38.901Z,996.24
2018-01-01T11:23:31.825Z,996.28
2018-01-01T11:24:31.814Z,996.30
2018-01-01T11:26:24.743Z,996.27
2018-01-01T11:27:24.738Z,996.30
2018-01-01T11:29:17.651Z,996.28
2018-01-01T11:30:17.656Z,996.21
2018-01-01T11:32:10.548Z,996.24
2018-01-01T11:33:10.573Z,996.28
2018-01-01T11:35:03.504Z,996.34
2018-01-01T11:36:03.484Z,996.31
2018-01-01T11:37:56.393Z,996.32
2018-01-01T11:38:56.400Z,996.24
2018-01-01T11:40:49.316Z,996.31
2018-01-01T11:41:49.322Z,996.26
2018-01-01T11:43:42.226Z,996.21
2018-01-01T11:44:42.247Z,996.20
2018-01-01T11:46:35.172Z,996.21
2018-01-01T11:47:35.172Z,996.18
2018-01-01T11:49:28.080Z,996.18
2018-01-01T11:50:28.104Z,996.10
2018-01-01T11:52:21.014Z,996.11
2018-01-01T11:53:21.022Z,996.05
2018-01-01T11:55:13.941Z,996.11
2018-01-01T11:56:13.935Z,996.09
2018-01-01T11:58:06.833Z,996.13
2018-01-01T11:59:06.861Z,996.11
2018-01-01T12:00:59.768Z,996.26
2018-01-01T12:01:59.775Z,996.18
2018-01-01T12:03:52.696Z,996.20
2018-01-01T12:04:52.705Z,996.18
2018-01-01T12:06:45.718Z,996.36
2018-01-01T12:07:45.707Z,996.20
2018-01-01T12:09:38.608Z,996.27
2018-01-01T12:10:38.647Z,996.22
2018-01-01T12:12:31.553Z,996.30
2018-01-01T12:13:31.561Z,996.31
2018-01-01T12:15:25.979Z,996.21
2018-01-01T12:16:25.978Z,996.19
2018-01-01T12:18:18.951Z,996.47
2018-01-01T12:19:18.917Z,996.31
2018-01-01T12:21:11.862Z,996.23
2018-01-01T12:22:11.879Z,996.48
2018-01-01T12:24:05.338Z,996.31
2018-01-01T12:25:05.294Z,996.29
2018-01-01T12:26:58.251Z,996.33
2018-01-01T12:27:58.295Z,996.32
2018-01-01T12:29:51.126Z,996.32
2018-01-01T12:30:51.233Z,996.19
2018-01-01T12:32:44.065Z,996.22
2018-01-01T12:33:44.073Z,996.15
2018-01-01T12:35:37.255Z,996.20
2018-01-01T12:36:37.009Z,996.23
2018-01-01T12:38:29.927Z,996.08
2018-01-01T12:39:29.966Z,996.01
2018-01-01T12:41:22.916Z,996.15
2018-01-01T12:42:22.855Z,996.15
2018-01-01T12:44:15.781Z,995.95
2018-01-01T12:45:15.792Z,995.92
2018-01-01T12:47:12.435Z,995.88
2018-01-01T12:48:12.432Z,995.77
2018-01-01T12:50:05.347Z,995.77
2018-01-01T12:51:05.384Z,995.73
2018-01-01T12:52:58.303Z,995.72
2018-01-01T12:53:58.300Z,995.79
2018-01-01T12:55:51.233Z,995.84
2018-01-01T12:56:51.230Z,995.75
2018-01-01T12:58:44.175Z,995.78
2018-01-01T12:59:44.147Z,995.79
2018-01-01T13:01:37.141Z,995.72
2018-01-01T13:02:37.115Z,995.76
2018-01-01T13:04:30.065Z,995.77
2018-01-01T13:05:30.037Z,995.78
2018-01-01T13:07:22.959Z,995.70
2018-01-01T13:08:22.963Z,995.69
2018-01-01T13:10:15.885Z,995.70
2018-01-01T13:11:15.891Z,995.71
2018-01-01T13:13:08.807Z,995.72
2018-01-01T13:14:08.819Z,995.76
2018-01-01T13:16:01.751Z,995.76
2018-01-01T13:17:01.751Z,995.75
2018-01-01T13:18:54.658Z,995.84
2018-01-01T13:19:54.665Z,995.85
2018-01-01T13:21:47.594Z,995.84
2018-01-01T13:22:47.601Z,995.80
2018-01-01T13:24:40.508Z,995.72
2018-01-01T13:25:40.522Z,995.72
2018-01-01T13:27:33.946Z,995.75
2018-01-01T13:28:33.952Z,995.77
2018-01-01T13:30:26.862Z,995.71
2018-01-01T13:31:26.888Z,995.75
2018-01-01T13:33:19.799Z,995.76
2018-01-01T13:34:19.803Z,995.73
2018-01-01T13:36:12.698Z,995.68
2018-01-01T13:37:12.713Z,995.70
2018-01-01T13:39:05.644Z,995.67
2018-01-01T13:40:05.637Z,995.64
2018-01-01T13:41:58.545Z,995.62
2018-01-01T13:42:58.562Z,995.61
2018-01-01T13:44:51.547Z,995.67
2018-01-01T13:45:51.507Z,995.58
2018-01-01T13:47:44.524Z,995.56
2018-01-01T13:48:44.675Z,995.61
2018-01-01T13:50:37.516Z,995.69
2018-01-01T13:51:37.487Z,995.57
2018-01-01T13:53:30.361Z,995.64
2018-01-01T13:54:30.379Z,995.67
2018-01-01T13:56:23.291Z,995.62
2018-01-01T13:57:23.296Z,995.65
2018-01-01T13:59:16.246Z,995.61
2018-01-01T14:00:16.231Z,995.63
2018-01-01T14:02:09.213Z,995.68
2018-01-01T14:03:09.297Z,995.66
2018-01-01T14:05:02.839Z,995.67
2018-01-01T14:06:02.090Z,995.67
2018-01-01T14:07:55.004Z,995.66
2018-01-01T14:08:55.219Z,995.67
2018-01-01T14:10:47.965Z,995.66
2018-01-01T14:11:48.004Z,995.69
2018-01-01T14:13:40.874Z,995.73
2018-01-01T14:14:40.909Z,995.73
2018-01-01T14:16:33.842Z,995.67
2018-01-01T14:17:33.848Z,995.69
2018-01-01T14:19:26.778Z,995.76
2018-01-01T14:20:26.777Z,995.78
2018-01-01T14:22:19.739Z,995.80
2018-01-01T14:23:19.714Z,995.70
2018-01-01T14:25:12.775Z,995.76
2018-01-01T14:26:12.765Z,995.81
2018-01-01T14:28:05.670Z,995.70
2018-01-01T14:29:05.677Z,995.75
2018-01-01T14:30:58.636Z,995.69
2018-01-01T14:31:58.616Z,995.73
2018-01-01T14:33:51.554Z,995.68
2018-01-01T14:34:51.582Z,995.68
2018-01-01T14:36:44.684Z,995.70
2018-01-01T14:37:44.629Z,995.72
2018-01-01T14:39:37.536Z,995.70
2018-01-01T14:40:37.584Z,995.75
2018-01-01T14:42:30.476Z,995.95
2018-01-01T14:43:30.691Z,995.76
2018-01-01T14:45:23.414Z,995.77
2018-01-01T14:46:23.410Z,995.85
2018-01-01T14:48:17.100Z,995.89
2018-01-01T14:49:16.825Z,995.85
2018-01-01T14:51:09.676Z,995.85
2018-01-01T14:52:09.921Z,995.90
2018-01-01T14:54:03.091Z,995.91
2018-01-01T14:55:03.151Z,995.88
2018-01-01T14:56:56.040Z,995.82
2018-01-01T14:57:56.032Z,995.84
2018-01-01T14:59:49.130Z,995.80
2018-01-01T15:00:48.985Z,995.79
2018-01-01T15:02:41.959Z,995.83
2018-01-01T15:03:42.064Z,995.79
2018-01-01T15:05:34.870Z,995.84
2018-01-01T15:06:34.852Z,995.76
2018-01-01T15:08:27.774Z,995.79
2018-01-01T15:09:27.771Z,995.80
2018-01-01T15:11:21.205Z,995.81
2018-01-01T15:12:21.208Z,995.77
2018-01-01T15:14:14.138Z,995.79
2018-01-01T15:15:14.136Z,995.70
2018-01-01T15:17:07.063Z,995.74
2018-01-01T15:18:07.043Z,995.75
2018-01-01T15:19:59.988Z,995.78
2018-01-01T15:20:59.973Z,995.77
2018-01-01T15:22:52.900Z,995.79
2018-01-01T15:23:52.909Z,995.77
2018-01-01T15:25:45.825Z,995.74
2018-01-01T15:26:45.845Z,995.76
2018-01-01T15:28:38.800Z,995.69
2018-01-01T15:29:38.781Z,995.74
2018-01-01T15:31:31.700Z,995.70
2018-01-01T15:32:31.703Z,995.70
2018-01-01T15:34:24.615Z,995.68
2018-01-01T15:35:24.627Z,995.75
2018-01-01T15:37:17.545Z,995.72
2018-01-01T15:38:17.547Z,995.77
2018-01-01T15:40:10.674Z,995.81
2018-01-01T15:41:10.711Z,995.75
2018-01-01T15:43:04.179Z,995.77
2018-01-01T15:44:04.179Z,995.77
2018-01-01T15:45:57.120Z,995.85
2018-01-01T15:46:57.219Z,995.79
2018-01-01T15:48:50.538Z,995.79
2018-01-01T15:49:50.560Z,995.80
2018-01-01T15:51:43.988Z,995.82
2018-01-01T15:52:43.971Z,995.80
2018-01-01T15:54:36.878Z,995.81
2018-01-01T15:55:36.888Z,995.84
2018-01-01T15:57:29.809Z,995.81
2018-01-01T15:58:29.811Z,995.78
2018-01-01T16:00:22.748Z,995.85
2018-01-01T16:01:22.761Z,995.80
2018-01-01T16:03:15.677Z,995.80
2018-01-01T16:04:15.677Z,995.86
2018-01-01T16:06:08.584Z,995.90
2018-01-01T16:07:08.590Z,995.83
2018-01-01T16:09:01.550Z,995.75
2018-01-01T16:10:01.505Z,995.78
2018-01-01T16:11:54.429Z,995.90
2018-01-01T16:12:54.518Z,995.78
2018-01-01T16:14:47.407Z,995.82
2018-01-01T16:15:47.398Z,995.84
2018-01-01T16:17:40.331Z,995.83
2018-01-01T16:18:40.340Z,995.86
2018-01-01T16:20:33.264Z,995.90
2018-01-01T16:21:33.251Z,995.82
2018-01-01T16:23:26.706Z,995.88
2018-01-01T16:24:26.695Z,995.78
2018-01-01T16:26:19.871Z,995.78
2018-01-01T16:27:19.621Z,995.79
2018-01-01T16:29:12.829Z,995.76
2018-01-01T16:30:12.732Z,995.72
2018-01-01T16:32:05.640Z,995.93
2018-01-01T16:33:05.641Z,995.68
2018-01-01T16:34:58.569Z,995.76
2018-01-01T16:35:58.565Z,995.74
2018-01-01T16:37:51.976Z,995.76
2018-01-01T16:38:51.991Z,995.79
2018-01-01T16:40:44.906Z,995.88
2018-01-01T16:41:44.911Z,995.85
2018-01-01T16:43:38.334Z,995.97
2018-01-01T16:44:38.334Z,995.77
2018-01-01T16:46:31.254Z,995.78
2018-01-01T16:47:31.255Z,995.73
2018-01-01T16:49:24.159Z,995.71
2018-01-01T16:50:24.175Z,995.72
2018-01-01T16:52:17.128Z,995.73
2018-01-01T16:53:17.127Z,995.81
2018-01-01T16:55:10.047Z,995.72
2018-01-01T16:56:10.061Z,995.71
2018-01-01T16:58:02.995Z,995.74
2018-01-01T16:59:02.979Z,995.76
2018-01-01T17:00:55.893Z,995.76
2018-01-01T17:01:55.896Z,995.73
2018-01-01T17:03:48.809Z,995.71
2018-01-01T17:04:48.814Z,995.71
2018-01-01T17:06:41.718Z,995.71
2018-01-01T17:07:41.727Z,995.73
2018-01-01T17:09:34.697Z,995.72
2018-01-01T17:10:34.680Z,995.69
2018-01-01T17:12:27.583Z,995.74
2018-01-01T17:13:27.597Z,995.69
2018-01-01T17:15:20.526Z,995.65
2018-01-01T17:16:20.527Z,995.63
2018-01-01T17:18:13.431Z,995.66
2018-01-01T17:19:13.442Z,995.67
2018-01-01T17:21:06.364Z,995.70
2018-01-01T17:22:06.369Z,995.68
2018-01-01T17:23:59.271Z,995.66
2018-01-01T17:24:59.289Z,995.66
2018-01-01T17:26:52.200Z,995.68
2018-01-01T17:27:52.198Z,995.69
2018-01-01T17:29:45.124Z,995.72
2018-01-01T17:30:45.133Z,995.75
2018-01-01T17:32:38.031Z,995.70
2018-01-01T17:33:38.028Z,995.73
2018-01-01T17:35:31.006Z,995.71
2018-01-01T17:36:30.997Z,995.72
2018-01-01T17:38:23.912Z,995.74
2018-01-01T17:39:23.912Z,995.74
2018-01-01T17:41:16.832Z,995.85
2018-01-01T17:42:16.827Z,995.85
2018-01-01T17:44:09.739Z,995.83
2018-01-01T17:45:09.754Z,995.87
2018-01-01T17:47:02.781Z,995.91
2018-01-01T17:48:02.671Z,995.94
2018-01-01T17:49:55.573Z,995.92
2018-01-01T17:50:55.580Z,995.93
2018-01-01T17:52:48.500Z,995.92
2018-01-01T17:53:48.500Z,995.91
2018-01-01T17:55:41.487Z,995.95
2018-01-01T17:56:41.422Z,995.93
2018-01-01T17:58:34.323Z,996.00